»·PEaware :: N717TS KSNA-KAPV

N717TS :: KSNA-KAPV

FLIGHT INFORMATION

Flight Status: Arrived
Operator: Privately registered:
United States
More flights under this callsign
Pilot: Ty S. (2873)
Aircraft: ROBIN DR-400
(DR40)
More flights by this aircraft type
Origin: KSNA John Wayne-Orange Co
United States
Destination: KAPV Apple Valley
United States
More flights between these airports :: More routes between these airports
Route: +
File this flight plan on PilotEdge
Remarks:
Altitude:
(Current/Filed)
7,500ft
Speed:
(Current/Filed)
0kts
Departed: 02-Mar-20 05:55 PM
Arrived: 02-Mar-20 06:38 PM
Distance/Time
Traveled:
64nm/0:43
Distance/Time
To Go:
Arrived

Flight Plot

Page will automatically refresh every two minutes.

Flight plan parsing failed; only flown route is shown


Map Options




Map Legend


Flown Route
Filed Route
Departure Airport
Arrival Airport
Navaid (VOR, NDB)
Fix

Horizontal Profiles

Position Reports

Time Latitude Longitude Heading Altitude Ground
Speed
02-Mar-20 17:46 33.674160 -117.872032 118 59ft 0kts
02-Mar-20 17:47 33.674160 -117.872032 118 59ft 0kts
02-Mar-20 17:48 33.674145 -117.871984 109 59ft 0kts
02-Mar-20 17:49 33.674244 -117.871734 31 59ft 8kts
02-Mar-20 17:50 33.676197 -117.869958 31 59ft 12kts
02-Mar-20 17:51 33.679173 -117.868126 23 58ft 11kts
02-Mar-20 17:52 33.681182 -117.866442 102 58ft 0kts
02-Mar-20 17:53 33.681178 -117.866420 104 58ft 1kts
02-Mar-20 17:54 33.676325 -117.868442 211 86ft 72kts
02-Mar-20 17:55 33.674566 -117.882607 346 809ft 77kts
02-Mar-20 17:56 33.696183 -117.884536 350 1513ft 79kts
02-Mar-20 17:58 33.717967 -117.882271 29 2170ft 86kts
02-Mar-20 17:59 33.736992 -117.862920 32 2728ft 94kts
02-Mar-20 18:00 33.757640 -117.842163 33 3237ft 99kts
02-Mar-20 18:01 33.778490 -117.820604 33 3745ft 97kts
02-Mar-20 18:02 33.798110 -117.799875 32 4239ft 91kts
02-Mar-20 18:03 33.817097 -117.780281 32 4767ft 91kts
02-Mar-20 18:04 33.835361 -117.762098 32 5539ft 79kts
02-Mar-20 18:05 33.850713 -117.747125 33 6236ft 67kts
02-Mar-20 18:06 33.867198 -117.731952 33 6641ft 86kts
02-Mar-20 18:07 33.887540 -117.713712 33 7127ft 93kts
02-Mar-20 18:08 33.908796 -117.695300 33 7618ft 94kts
02-Mar-20 18:09 33.930339 -117.677102 33 8103ft 93kts
02-Mar-20 18:10 33.951966 -117.658947 33 8409ft 105kts
02-Mar-20 18:11 33.977797 -117.637236 34 8399ft 117kts
02-Mar-20 18:12 34.004106 -117.615194 34 8392ft 109kts
02-Mar-20 18:13 34.028593 -117.594817 34 8389ft 104kts
02-Mar-20 18:13 34.048362 -117.578401 34 8386ft 103kts
02-Mar-20 18:15 34.075965 -117.555775 34 8381ft 102kts
02-Mar-20 18:16 34.101153 -117.539805 23 8381ft 103kts
02-Mar-20 18:16 34.123566 -117.529258 23 8387ft 104kts
02-Mar-20 18:17 34.150532 -117.516310 23 8389ft 104kts
02-Mar-20 18:19 34.181992 -117.500626 23 8392ft 105kts
02-Mar-20 18:20 34.208997 -117.486689 24 8395ft 105kts
02-Mar-20 18:20 34.231350 -117.474814 24 8398ft 105kts
02-Mar-20 18:21 34.257962 -117.460189 24 8405ft 104kts
02-Mar-20 18:23 34.288870 -117.443007 24 8412ft 104kts
02-Mar-20 18:23 34.310681 -117.430370 25 8413ft 102kts
02-Mar-20 18:24 34.334605 -117.411960 35 8135ft 99kts
02-Mar-20 18:25 34.356762 -117.391741 33 7802ft 99kts
02-Mar-20 18:26 34.378746 -117.371697 32 7485ft 98kts
02-Mar-20 18:27 34.401010 -117.352631 34 7178ft 98kts
02-Mar-20 18:28 34.420760 -117.330017 38 6886ft 98kts
02-Mar-20 18:29 34.440145 -117.306536 40 6605ft 98kts
02-Mar-20 18:30 34.459555 -117.282926 37 6334ft 98kts
02-Mar-20 18:31 34.479817 -117.260266 38 5968ft 100kts
02-Mar-20 18:32 34.500551 -117.236861 35 5466ft 103kts
02-Mar-20 18:33 34.521520 -117.215067 31 4490ft 96kts
02-Mar-20 18:34 34.539618 -117.199809 18 3813ft 84kts
02-Mar-20 18:35 34.560145 -117.192126 14 3347ft 73kts
02-Mar-20 18:36 34.574297 -117.187168 13 3068ft 46kts
02-Mar-20 18:37 34.579061 -117.186833 224 3065ft 4kts
02-Mar-20 18:38 34.575809 -117.188028 196 3065ft 12kts
02-Mar-20 18:39 34.574339 -117.189172 271 3064ft 0kts
02-Mar-20 18:40 34.574339 -117.189172 271 3064ft 0kts
02-Mar-20 18:41 34.574339 -117.189172 271 3064ft 0kts
02-Mar-20 18:42 34.574339 -117.189172 271 3064ft 0kts
02-Mar-20 18:43 34.574339 -117.189172 271 3064ft 0kts
02-Mar-20 18:44 34.574339 -117.189172 271 3064ft 0kts
02-Mar-20 18:45 34.574339 -117.189172 271 3064ft 0kts

Navigation Log

Ident Type
Flight plan parsing failed, navigation log unavailable